Track Малышев Николай

Time Latitude Longitude Accuracy (66% radius in meters) Altitude (meters) Speed (km/hour) Bearing (degrees) Battery (%) GPS flag
10:22:14 60.370912 29.556556 8 78.541880512614 0 301.76879882812 81 1 delete
10:22:02 60.370912 29.556556 6 79.605187729971 0 301.76879882812 81 1 delete
10:21:53 60.370912 29.556556 12 79.557663443604 0 301.76879882812 81 1 delete
10:21:41 60.370912 29.556556 8 78.708830677684 0 301.76879882812 81 1 delete
10:21:36 60.370890 29.556632 8 78.644828752246 2.2904953956604 300.86608886719 81 1 delete
10:21:33 60.370859 29.556709 6 78.440702999003 2.2439346313477 319.53927612305 81 1 delete
10:21:29 60.370790 29.556779 6 78.183888147537 2.0932731628418 336.337890625 81 1 delete
10:21:26 60.370737 29.556823 8 77.851572950616 0 333.05661010742 81 1 delete
10:21:17 60.370667 29.556874 8 76.719952380685 2.4058747291565 334.81204223633 81 1 delete
10:21:14 60.370610 29.557032 8 76.359231191628 5.0530652999878 314.67071533203 81 1 delete
10:21:12 60.370598 29.557288 6 78.594798981687 6.3222103118896 232.99186706543 81 1 delete
10:21:09 60.370755 29.557365 8 82.308577097578 6.9039297103882 160.16368103027 81 1 delete
10:21:05 60.370955 29.557147 6 86.557856471005 6.7112421989441 143.64485168457 81 1 delete
10:21:02 60.371149 29.556977 6 86.161541084084 6.5966649055481 190.55397033691 81 1 delete
10:21:00 60.371350 29.557093 8 85.345175887481 7.6327924728394 196.05265808105 81 1 delete
10:20:57 60.371550 29.557309 6 84.335282913496 5.1810846328735 210.84954833984 81 1 delete
10:20:53 60.371671 29.557530 8 83.558992937804 5.6295199394226 227.80520629883 81 1 delete
10:20:50 60.371752 29.557778 8 83.694511745329 4.6405124664307 241.33224487305 81 1 delete
10:20:48 60.371820 29.558030 8 85.786828780309 4.5991744995117 240.05572509766 81 1 delete
10:20:45 60.371838 29.558196 8 87.585503572122 1.7888398170471 300.86904907227 81 1 delete
10:20:41 60.371848 29.558421 6 87.698127780281 3.7059595584869 253.18104553223 81 1 delete
10:20:38 60.371885 29.558718 6 88.501804478551 5.715624332428 251.45732116699 81 1 delete
10:20:36 60.371945 29.559087 6 90.014691077834 5.9995794296265 250.22039794922 81 1 delete
10:20:33 60.372000 29.559472 6 91.498877922429 5.6620378494263 247.58164978027 81 1 delete
10:20:29 60.372059 29.559858 6 93.619626795195 7.3201012611389 248.43350219727 81 1 delete
10:20:26 60.372103 29.560288 6 97.744262009303 7.4669609069824 249.38539123535 81 1 delete
10:20:24 60.372087 29.560745 6 101.06706354618 5.0283899307251 296.63858032227 81 1 delete
10:20:21 60.371966 29.561145 8 100.72696735912 4.4978575706482 293.30673217773 81 1 delete
10:20:17 60.371888 29.561402 8 98.552691583874 4.2285723686218 315.37097167969 81 1 delete
10:20:14 60.371766 29.561552 8 97.525153729865 4.218563079834 340.70135498047 81 1 delete
10:20:12 60.371656 29.561710 8 96.401037842128 4.2584729194641 321.94897460938 81 1 delete
10:20:09 60.371572 29.561927 6 97.323885794395 4.1939287185669 278.68463134766 81 1 delete
10:20:05 60.371563 29.562155 6 97.370879972954 4.1702065467834 281.84262084961 81 1 delete
10:20:02 60.371509 29.562435 8 98.68576083863 4.1219673156738 291.90777587891 81 1 delete
10:20:00 60.371448 29.562703 8 99.725744055231 4.0475034713745 305.66567993164 81 1 delete
10:19:57 60.371385 29.562949 6 98.839072474093 3.9246196746826 298.12063598633 81 1 delete
10:19:53 60.371336 29.563154 6 99.053011031911 3.8082940578461 296.49911499023 81 1 delete
10:19:50 60.371302 29.563399 6 98.934756135802 3.8259694576263 278.68753051758 81 1 delete
10:19:48 60.371305 29.563649 6 99.006164374711 3.9594645500183 277.10034179688 81 1 delete
10:19:45 60.371295 29.563955 6 99.936044303659 3.9700207710266 271.61361694336 81 1 delete
10:19:41 60.371300 29.564267 6 100.75903465509 3.8359656333923 260.37985229492 81 1 delete
10:19:38 60.371334 29.564559 6 100.10394676681 3.5948774814606 253.85975646973 81 1 delete
10:19:36 60.371370 29.564796 6 100.00353228221 3.52800989151 241.1435546875 81 1 delete
10:19:33 60.371403 29.565001 8 100.18535470536 3.5137557983398 244.90264892578 81 1 delete
10:19:29 60.371402 29.565262 6 100.23941144839 3.605034828186 305.58325195312 81 1 delete
10:19:26 60.371374 29.565463 8 100.2834212262 3.8851251602173 306.43063354492 81 1 delete
10:19:24 60.371347 29.565681 8 100.29930517938 4.0799741744995 295.08071899414 81 1 delete
10:19:21 60.371347 29.566051 8 100.22377196439 3.7370479106903 264.96960449219 81 1 delete
10:19:17 60.371364 29.566363 8 95.545276138297 3.4118039608002 261.02572631836 81 1 delete
10:19:14 60.371396 29.566603 8 93.46177116722 3.2706868648529 247.97200012207 81 1 delete